Time;durP1;ratioP1;P1;durP2;ratioP2;P2;SDS_P1;SDS_P2;PMS_P1;PMS_P2;Temp;Humidity;BMP_temperature;BMP_pressure;BME280_temperature;BME280_humidity;BME280_pressure;Samples;Min_cycle;Max_cycle;Signal;HPM_P1;HPM_P2
2022/04/05 00:02:46;;;;;;;8.40;6.80;;;;;;;4.25;63.53;96948.28;6180553;28;20244;-81
2022/04/05 00:05:48;;;;;;;9.30;7.27;;;;;;;4.34;62.72;96949.44;6180496;28;20604;-81
2022/04/05 00:08:50;;;;;;;7.70;6.20;;;;;;;4.36;61.87;96940.56;6170914;28;20957;-81
2022/04/05 00:11:52;;;;;;;8.07;6.47;;;;;;;4.32;62.24;96940.84;6179992;28;20856;-81
2022/04/05 00:14:55;;;;;;;7.33;6.13;;;;;;;4.26;63.16;96921.22;6170696;28;20244;-81
2022/04/05 00:17:57;;;;;;;7.87;6.10;;;;;;;4.23;63.30;96942.31;6179549;28;20235;-81
2022/04/05 00:20:59;;;;;;;7.30;5.90;;;;;;;4.16;64.29;96935.84;6145456;28;20244;-81
2022/04/05 00:24:01;;;;;;;7.57;5.50;;;;;;;4.20;63.52;96920.78;6120659;28;20232;-81
2022/04/05 00:27:04;;;;;;;5.97;5.17;;;;;;;4.15;64.51;96905.44;6168999;28;20700;-81
2022/04/05 00:30:07;;;;;;;8.20;6.07;;;;;;;4.09;65.93;96916.31;6170491;28;20221;-81
2022/04/05 00:33:09;;;;;;;6.63;5.63;;;;;;;4.07;64.77;96899.91;6182141;28;20684;-81
2022/04/05 00:36:11;;;;;;;7.37;6.07;;;;;;;4.07;65.98;96907.72;6180243;28;20204;-81
2022/04/05 00:39:13;;;;;;;10.50;6.63;;;;;;;4.09;65.55;96914.50;6179635;28;20228;-81
2022/04/05 00:42:15;;;;;;;7.00;6.27;;;;;;;4.05;65.99;96910.44;6179229;28;20694;-81
2022/04/05 00:45:20;;;;;;;7.03;5.90;;;;;;;4.04;66.49;96907.94;6178703;28;20366;-81
2022/04/05 00:48:56;;;;;;;6.33;5.50;;;;;;;4.00;66.97;96902.06;6180319;28;20758;-81
2022/04/05 00:51:59;;;;;;;6.37;5.63;;;;;;;4.01;66.39;96923.78;6180666;28;20789;-81
2022/04/05 00:55:03;;;;;;;6.93;5.60;;;;;;;4.00;66.49;96888.19;6179223;28;20246;-81
2022/04/05 00:58:07;;;;;;;8.37;5.90;;;;;;;4.02;66.08;96897.59;6178841;28;20783;-81
2022/04/05 01:01:15;;;;;;;5.83;5.00;;;;;;;4.05;65.52;96889.56;6178714;28;20277;-81
2022/04/05 01:04:17;;;;;;;11.10;6.13;;;;;;;4.08;66.50;96893.75;6180617;28;20242;-81
2022/04/05 01:07:22;;;;;;;6.37;5.63;;;;;;;4.05;67.25;96880.88;6179528;28;20276;-81
2022/04/05 01:10:27;;;;;;;7.57;5.67;;;;;;;4.04;68.10;96867.00;6158005;28;20733;-81
2022/04/05 01:13:31;;;;;;;7.67;6.10;;;;;;;4.04;67.51;96874.81;6170787;28;20298;-81
2022/04/05 01:16:35;;;;;;;6.90;5.40;;;;;;;4.04;67.64;96881.81;6170639;28;20242;-81
2022/04/05 01:19:37;;;;;;;7.13;5.80;;;;;;;4.09;68.02;96874.53;6168099;28;20290;-81
2022/04/05 01:22:48;;;;;;;6.57;5.80;;;;;;;4.06;67.78;96872.97;6162572;28;20252;-81
2022/04/05 01:25:52;;;;;;;7.77;6.00;;;;;;;4.04;68.78;96871.38;6177903;28;20269;-81
2022/04/05 01:28:54;;;;;;;5.60;4.63;;;;;;;4.08;67.77;96884.13;6181132;28;20238;-81
2022/04/05 01:32:05;;;;;;;6.90;5.33;;;;;;;4.08;68.91;96870.25;6196221;28;20262;-81
2022/04/05 01:35:08;;;;;;;6.90;5.10;;;;;;;4.02;69.53;96887.13;6180739;28;20227;-81
2022/04/05 01:38:11;;;;;;;6.70;5.10;;;;;;;3.99;68.90;96858.63;6162644;28;20598;-81
2022/04/05 01:41:13;;;;;;;6.43;5.40;;;;;;;3.97;69.14;96857.06;6184040;28;20747;-81
2022/04/05 01:44:16;;;;;;;5.70;4.50;;;;;;;4.00;68.51;96862.06;6179143;28;20234;-81
2022/04/05 01:47:19;;;;;;;5.23;4.63;;;;;;;4.01;69.24;96877.63;6163316;28;20598;-81
2022/04/05 01:50:21;;;;;;;6.23;4.77;;;;;;;4.09;67.42;96848.44;6162302;28;20229;-81
2022/04/05 01:53:23;;;;;;;6.80;4.50;;;;;;;4.12;67.55;96840.38;6162914;28;20715;-81
2022/04/05 01:56:25;;;;;;;5.27;4.10;;;;;;;4.12;67.57;96850.81;6154803;28;20797;-81
2022/04/05 01:59:30;;;;;;;4.67;4.23;;;;;;;4.17;66.28;96846.13;6161606;28;20233;-81
2022/04/05 02:02:32;;;;;;;5.53;4.30;;;;;;;4.15;67.46;96821.88;6167033;28;20250;-81
2022/04/05 02:05:35;;;;;;;5.00;4.50;;;;;;;4.16;67.56;96815.72;6180575;28;20701;-82
2022/04/05 02:08:37;;;;;;;5.40;4.67;;;;;;;4.22;66.97;96819.69;6184722;28;20232;-81
2022/04/05 02:11:39;;;;;;;5.30;4.30;;;;;;;4.22;66.60;96806.63;6183101;28;20349;-81
2022/04/05 02:15:09;;;;;;;5.37;4.37;;;;;;;4.20;67.20;96806.72;6151729;28;20737;-81
2022/04/05 02:18:19;;;;;;;5.27;4.10;;;;;;;4.20;66.99;96798.88;6179147;28;20239;-81
2022/04/05 02:21:22;;;;;;;6.13;4.10;;;;;;;4.09;67.47;96793.59;6166234;28;20231;-81
2022/04/05 02:24:25;;;;;;;6.47;3.87;;;;;;;4.11;67.67;96806.53;6182859;28;20606;-81
2022/04/05 02:27:29;;;;;;;4.67;4.20;;;;;;;4.03;68.27;96817.50;6182665;28;20235;-81
2022/04/05 02:30:31;;;;;;;4.57;4.10;;;;;;;4.03;68.11;96813.09;6183013;28;20245;-81
2022/04/05 02:33:35;;;;;;;4.27;3.83;;;;;;;3.99;67.95;96795.16;6166423;28;20259;-81
2022/04/05 02:36:42;;;;;;;4.50;3.93;;;;;;;4.00;68.54;96800.25;6182322;28;20725;-81
2022/04/05 02:39:49;;;;;;;4.30;3.90;;;;;;;4.05;67.50;96794.75;6182227;28;20610;-81
2022/04/05 02:42:52;;;;;;;5.23;4.37;;;;;;;4.00;67.86;96794.19;6181818;28;20227;-81
2022/04/05 02:45:55;;;;;;;6.03;4.80;;;;;;;4.02;68.25;96790.56;6173338;28;20313;-81
2022/04/05 02:48:59;;;;;;;6.57;4.70;;;;;;;4.21;67.01;96797.94;6173957;28;20256;-81
2022/04/05 02:52:10;;;;;;;5.53;4.13;;;;;;;4.30;67.73;96767.75;6181776;28;20732;-81
2022/04/05 02:55:22;;;;;;;5.07;3.80;;;;;;;4.37;66.68;96776.84;6183510;28;20716;-81
2022/04/05 02:58:25;;;;;;;4.53;4.00;;;;;;;4.30;67.51;96770.34;6157608;28;20241;-81
2022/04/05 03:01:27;;;;;;;3.93;3.43;;;;;;;4.27;68.34;96789.72;6161935;28;20246;-81
2022/04/05 03:04:41;;;;;;;5.13;3.60;;;;;;;4.31;68.01;96780.69;6163051;28;20275;-81
2022/04/05 03:07:44;;;;;;;4.03;3.47;;;;;;;4.37;67.17;96789.91;6173264;28;20248;-81
2022/04/05 03:10:48;;;;;;;7.47;3.80;;;;;;;4.35;67.06;96774.34;6165373;28;20300;-81
2022/04/05 03:13:51;;;;;;;4.37;3.33;;;;;;;4.35;68.20;96757.84;6162542;28;20381;-81
2022/04/05 03:16:54;;;;;;;4.10;3.60;;;;;;;4.35;67.26;96763.88;6181658;28;20232;-81
2022/04/05 03:19:59;;;;;;;4.30;3.90;;;;;;;4.42;67.47;96761.66;6164384;28;20261;-81
2022/04/05 03:23:01;;;;;;;3.80;3.23;;;;;;;4.50;66.46;96748.91;6165489;28;20715;-81
2022/04/05 03:26:03;;;;;;;7.80;3.67;;;;;;;4.55;65.88;96754.66;6173650;28;20236;-81
2022/04/05 03:29:06;;;;;;;4.03;3.40;;;;;;;4.52;67.40;96744.41;6180080;28;20230;-81
2022/04/05 03:32:11;;;;;;;4.07;2.97;;;;;;;4.51;66.65;96761.03;6201724;28;20226;-81
2022/04/05 03:35:14;;;;;;;4.47;3.50;;;;;;;4.56;67.16;96745.03;6183869;28;20713;-81
2022/04/05 03:38:16;;;;;;;6.40;4.13;;;;;;;4.60;66.12;96718.56;6183443;28;20247;-81
2022/04/05 03:41:21;;;;;;;3.80;3.03;;;;;;;4.68;65.86;96736.31;6181512;28;20320;-81
2022/04/05 03:44:24;;;;;;;4.53;3.53;;;;;;;4.75;65.66;96738.38;6180197;28;20649;-81
2022/04/05 03:47:27;;;;;;;5.30;3.70;;;;;;;4.85;65.50;96716.78;6182243;28;20229;-81
2022/04/05 03:50:31;;;;;;;5.23;3.53;;;;;;;4.87;64.71;96733.22;6165523;28;20240;-81
2022/04/05 03:53:37;;;;;;;4.43;3.60;;;;;;;4.91;64.44;96766.84;6180619;28;20232;-81
2022/04/05 03:56:45;;;;;;;4.70;2.97;;;;;;;5.04;64.42;96740.66;6180724;28;20569;-82
2022/04/05 03:59:48;;;;;;;3.97;3.17;;;;;;;5.05;64.15;96721.41;6170588;28;20257;-82
2022/04/05 04:02:51;;;;;;;3.83;2.90;;;;;;;5.07;63.44;96727.34;6179982;28;20322;-81
2022/04/05 04:05:53;;;;;;;3.70;3.30;;;;;;;5.10;64.62;96735.78;6180610;28;20252;-82
2022/04/05 04:08:57;;;;;;;3.90;3.07;;;;;;;5.12;63.60;96728.69;6164555;28;20597;-82
2022/04/05 04:12:00;;;;;;;3.97;3.20;;;;;;;5.05;64.71;96743.16;6182209;28;20244;-82
2022/04/05 04:15:06;;;;;;;4.17;3.07;;;;;;;5.08;64.86;96742.09;6141537;28;20240;-82
2022/04/05 04:18:10;;;;;;;3.50;3.20;;;;;;;5.06;63.73;96747.44;6181258;28;20220;-82
2022/04/05 04:21:14;;;;;;;3.70;2.80;;;;;;;5.04;63.98;96751.94;6181126;28;20311;-82
2022/04/05 04:24:16;;;;;;;3.53;2.80;;;;;;;5.03;64.69;96742.44;6164302;28;20315;-82
2022/04/05 04:27:19;;;;;;;3.80;3.07;;;;;;;5.01;64.12;96739.09;6179547;28;20211;-82
2022/04/05 04:30:21;;;;;;;3.40;3.10;;;;;;;5.00;64.58;96740.03;6171364;28;20238;-82
2022/04/05 04:33:24;;;;;;;3.30;2.93;;;;;;;5.05;64.31;96737.09;6180197;28;20228;-82
2022/04/05 04:36:28;;;;;;;3.87;2.80;;;;;;;5.02;64.49;96745.16;6179318;28;20236;-82
2022/04/05 04:39:30;;;;;;;3.03;2.73;;;;;;;5.11;64.28;96745.31;6179813;28;20239;-82
2022/04/05 04:42:33;;;;;;;2.60;2.40;;;;;;;5.16;63.80;96751.06;6163491;28;20239;-82
2022/04/05 04:45:36;;;;;;;3.03;2.63;;;;;;;5.27;64.08;96750.25;6163244;28;20233;-82
2022/04/05 04:48:38;;;;;;;2.57;2.37;;;;;;;5.34;64.42;96763.72;6177876;28;20225;-82
2022/04/05 04:51:40;;;;;;;3.90;2.60;;;;;;;5.33;64.13;96756.81;6178310;28;20225;-82
2022/04/05 04:54:42;;;;;;;3.77;2.57;;;;;;;5.40;64.12;96758.00;6162843;28;20596;-82
2022/04/05 04:57:44;;;;;;;2.77;2.43;;;;;;;5.42;63.68;96750.91;6163377;28;20235;-82
2022/04/05 05:00:47;;;;;;;3.40;2.63;;;;;;;5.46;63.19;96740.09;6162278;28;20237;-82
2022/04/05 05:03:49;;;;;;;2.97;2.50;;;;;;;5.51;63.41;96782.44;6163039;28;20251;-82
2022/04/05 05:06:53;;;;;;;1.97;1.83;;;;;;;5.59;63.16;96788.91;6179402;28;20720;-82
2022/04/05 05:09:55;;;;;;;2.03;1.83;;;;;;;5.67;62.95;96781.31;6162233;28;20229;-82
2022/04/05 05:12:57;;;;;;;2.10;1.90;;;;;;;5.72;62.47;96764.28;6162750;28;20233;-82
2022/04/05 05:15:59;;;;;;;2.70;1.90;;;;;;;5.76;62.10;96770.16;6178612;28;20344;-82
2022/04/05 05:19:02;;;;;;;2.17;1.87;;;;;;;5.75;62.76;96786.78;6179973;28;20239;-82
2022/04/05 05:22:04;;;;;;;1.87;1.67;;;;;;;5.79;62.68;96765.50;6178147;28;20630;-82
2022/04/05 05:25:08;;;;;;;1.50;1.40;;;;;;;5.82;62.60;96767.88;6162461;28;20235;-82
2022/04/05 05:28:11;;;;;;;2.17;1.97;;;;;;;5.84;62.14;96759.91;6180292;28;20243;-82
2022/04/05 05:31:13;;;;;;;1.47;1.37;;;;;;;5.85;62.19;96743.25;6194144;28;20577;-82
2022/04/05 05:34:22;;;;;;;2.80;1.90;;;;;;;5.87;62.36;96760.53;6168785;28;20236;-82
2022/04/05 05:37:24;;;;;;;2.17;1.97;;;;;;;5.88;62.29;96770.09;6155065;28;20249;-82
2022/04/05 05:40:26;;;;;;;2.20;1.57;;;;;;;5.89;62.12;96763.88;6165716;28;20598;-80
2022/04/05 05:43:28;;;;;;;1.73;1.40;;;;;;;5.88;62.52;96759.63;6178040;28;20731;-82
2022/04/05 05:46:31;;;;;;;2.80;1.60;;;;;;;5.88;63.42;96785.81;6162172;28;20232;-82
2022/04/05 05:49:33;;;;;;;1.80;1.50;;;;;;;5.90;62.91;96788.28;6180143;28;20241;-82
2022/04/05 05:52:35;;;;;;;1.70;1.50;;;;;;;5.97;62.80;96792.13;6162082;28;20247;-82
2022/04/05 05:55:37;;;;;;;1.47;1.37;;;;;;;5.99;62.71;96782.34;6176873;28;20251;-82
2022/04/05 05:58:39;;;;;;;1.70;1.10;;;;;;;6.11;62.05;96788.44;6177870;28;20657;-82
2022/04/05 06:01:41;;;;;;;1.60;1.33;;;;;;;6.18;61.38;96787.88;6161202;28;20233;-82
2022/04/05 06:04:44;;;;;;;2.67;1.50;;;;;;;6.20;62.20;96791.16;6177840;28;20233;-82
2022/04/05 06:07:46;;;;;;;1.83;1.27;;;;;;;6.23;62.53;96809.28;6170084;28;20284;-82
2022/04/05 06:10:48;;;;;;;2.27;1.60;;;;;;;6.36;61.11;96806.56;6160051;28;20689;-82
2022/04/05 06:13:51;;;;;;;2.80;1.70;;;;;;;6.40;61.75;96828.09;6179569;28;20690;-82
2022/04/05 06:16:53;;;;;;;1.90;1.60;;;;;;;6.47;61.82;96818.84;6161425;28;20232;-82
2022/04/05 06:19:55;;;;;;;1.87;1.63;;;;;;;6.53;61.32;96832.28;6176977;28;20689;-82
2022/04/05 06:23:03;;;;;;;2.33;1.80;;;;;;;6.59;61.02;96826.56;6162686;28;20237;-82
2022/04/05 06:26:05;;;;;;;2.00;1.70;;;;;;;6.60;61.06;96835.25;6177488;28;20534;-82
2022/04/05 06:29:07;;;;;;;2.00;1.80;;;;;;;6.59;61.41;96826.56;6177720;28;20685;-82
2022/04/05 06:32:10;;;;;;;2.17;1.87;;;;;;;6.65;60.48;96820.84;6173787;28;20250;-82
2022/04/05 06:35:13;;;;;;;2.30;2.00;;;;;;;6.70;60.88;96824.88;6176152;28;20230;-82
2022/04/05 06:38:16;;;;;;;2.60;1.63;;;;;;;6.74;61.18;96828.94;6162894;28;20788;-82
2022/04/05 06:41:18;;;;;;;3.00;1.40;;;;;;;6.76;61.91;96825.25;6160996;28;20237;-82
2022/04/05 06:44:20;;;;;;;2.13;1.90;;;;;;;6.70;61.06;96830.13;6178083;28;20685;-82
2022/04/05 06:47:23;;;;;;;2.40;1.40;;;;;;;6.74;61.35;96831.56;6161102;28;20236;-82
2022/04/05 06:50:25;;;;;;;2.50;1.80;;;;;;;6.71;63.19;96834.41;6181873;28;20237;-82
2022/04/05 06:53:28;;;;;;;1.97;1.80;;;;;;;6.69;61.31;96850.25;6183243;28;20237;-82
2022/04/05 06:56:30;;;;;;;3.30;1.70;;;;;;;6.66;61.59;96861.00;6167864;28;20232;-82
2022/04/05 06:59:32;;;;;;;1.73;1.60;;;;;;;6.64;61.26;96841.94;6175389;28;20242;-82
2022/04/05 07:02:34;;;;;;;2.00;1.73;;;;;;;6.62;60.79;96830.72;6150609;28;20732;-83
2022/04/05 07:05:37;;;;;;;1.83;1.70;;;;;;;6.68;61.71;96825.03;6181239;28;20229;-82
2022/04/05 07:08:39;;;;;;;2.33;2.10;;;;;;;6.71;60.96;96835.25;6183679;28;20234;-82
2022/04/05 07:11:41;;;;;;;2.83;1.73;;;;;;;6.80;61.55;96826.66;6182784;28;20612;-82
2022/04/05 07:14:43;;;;;;;3.07;1.80;;;;;;;6.92;61.07;96836.19;6164520;28;20248;-82
2022/04/05 07:17:45;;;;;;;2.43;2.07;;;;;;;6.89;61.95;96835.59;6180349;28;20239;-82
2022/04/05 07:21:04;;;;;;;1.97;1.70;;;;;;;6.90;61.71;96853.84;6182820;28;20240;-82
2022/04/05 07:24:06;;;;;;;2.17;1.97;;;;;;;6.98;61.99;96845.38;6195955;28;20596;-82
2022/04/05 07:27:08;;;;;;;2.27;1.70;;;;;;;7.04;63.20;96831.78;6186052;28;20210;-82
2022/04/05 07:30:11;;;;;;;2.00;1.80;;;;;;;7.02;62.65;96858.13;6172653;28;20213;-82
2022/04/05 07:33:13;;;;;;;2.77;1.97;;;;;;;6.98;63.66;96834.88;6182875;28;20214;-82
2022/04/05 07:36:16;;;;;;;2.87;2.00;;;;;;;6.83;65.37;96849.19;6165126;28;20616;-81
2022/04/05 07:39:21;;;;;;;2.23;1.80;;;;;;;6.79;64.32;96872.19;6181000;28;20217;-82
2022/04/05 07:42:23;;;;;;;2.17;1.87;;;;;;;6.86;66.32;96852.44;6164705;28;20230;-82
2022/04/05 07:45:25;;;;;;;2.33;2.13;;;;;;;6.84;67.67;96858.75;6164549;28;20268;-82
2022/04/05 07:48:29;;;;;;;2.30;2.10;;;;;;;6.81;66.78;96870.28;6186026;28;20298;-82
2022/04/05 07:51:34;;;;;;;3.87;2.33;;;;;;;6.84;67.30;96861.34;6180054;28;20232;-82
2022/04/05 07:54:37;;;;;;;2.13;1.93;;;;;;;6.91;67.65;96859.91;6174987;28;20313;-82
2022/04/05 07:57:40;;;;;;;2.40;2.20;;;;;;;6.93;68.99;96876.38;6179973;28;20302;-81
2022/04/05 08:00:43;;;;;;;2.30;2.10;;;;;;;7.04;67.21;96871.97;6162913;28;20226;-81
2022/04/05 08:03:45;;;;;;;2.43;2.20;;;;;;;7.18;65.25;96894.50;6180991;28;20232;-81
2022/04/05 08:06:47;;;;;;;2.80;2.07;;;;;;;7.23;66.91;96891.47;6180436;28;20708;-82
2022/04/05 08:09:49;;;;;;;2.57;1.97;;;;;;;7.40;66.47;96860.28;6180098;28;20225;-82
2022/04/05 08:12:52;;;;;;;2.13;1.93;;;;;;;7.71;64.08;96889.31;6180458;28;20252;-82
2022/04/05 08:15:55;;;;;;;1.77;1.53;;;;;;;7.73;63.57;96888.25;6179400;28;20225;-82
2022/04/05 08:18:59;;;;;;;1.60;1.30;;;;;;;7.82;64.91;96883.19;6168016;28;20237;-81
2022/04/05 08:22:01;;;;;;;2.07;1.50;;;;;;;7.93;63.78;96878.72;6179972;28;20234;-82
2022/04/05 08:25:04;;;;;;;1.60;1.50;;;;;;;7.91;64.62;96899.03;6178732;28;20760;-82
2022/04/05 08:28:07;;;;;;;1.87;1.77;;;;;;;7.62;64.64;96898.78;6176927;28;20279;-81
2022/04/05 08:31:09;;;;;;;1.73;1.60;;;;;;;7.47;65.20;96886.06;6185756;28;20242;-82
2022/04/05 08:34:11;;;;;;;3.03;1.40;;;;;;;7.45;65.20;96907.19;6181936;28;20234;-82
2022/04/05 08:37:13;;;;;;;1.47;1.27;;;;;;;7.43;65.90;96900.38;6172046;28;20932;-82
2022/04/05 08:40:18;;;;;;;1.10;1.00;;;;;;;7.67;65.22;96911.56;6147934;28;20238;-81
2022/04/05 08:43:21;;;;;;;2.43;1.57;;;;;;;7.77;64.95;96892.31;6144748;28;20284;-82
2022/04/05 08:46:24;;;;;;;1.83;1.23;;;;;;;7.73;66.25;96913.69;6158009;28;20234;-82
2022/04/05 08:49:29;;;;;;;2.70;1.50;;;;;;;7.72;63.60;96918.09;6177822;28;20232;-82
2022/04/05 08:52:31;;;;;;;1.67;1.30;;;;;;;7.82;63.06;96910.28;6158862;28;20239;-82
2022/04/05 08:55:35;;;;;;;2.00;1.30;;;;;;;7.77;62.18;96900.19;6129497;28;20667;-82
2022/04/05 08:58:38;;;;;;;1.60;1.20;;;;;;;7.92;62.42;96920.88;6178922;28;20241;-82
2022/04/05 09:01:41;;;;;;;1.90;1.50;;;;;;;7.85;61.73;96911.84;6178668;28;20808;-82
2022/04/05 09:04:45;;;;;;;2.10;1.50;;;;;;;7.92;63.21;96910.38;6162792;28;20322;-82
2022/04/05 09:07:47;;;;;;;1.50;1.40;;;;;;;8.09;62.31;96912.44;6160770;28;20680;-82
2022/04/05 09:10:52;;;;;;;1.60;1.27;;;;;;;8.25;61.75;96922.53;6178475;28;20231;-82
2022/04/05 09:13:59;;;;;;;0.90;0.90;;;;;;;8.44;60.75;96906.94;6177591;28;20724;-82
2022/04/05 09:17:07;;;;;;;1.10;1.00;;;;;;;8.89;59.06;96908.28;6178886;28;20227;-82
2022/04/05 09:20:16;;;;;;;0.93;0.93;;;;;;;9.10;59.36;96917.91;6183561;28;20231;-83
2022/04/05 09:23:25;;;;;;;0.73;0.73;;;;;;;9.03;58.97;96909.72;6161763;28;20241;-82
2022/04/05 09:26:41;;;;;;;0.70;0.70;;;;;;;9.61;58.57;96923.06;6165942;28;20739;-82
2022/04/05 09:29:47;;;;;;;0.93;0.90;;;;;;;10.41;56.40;96914.09;6183232;28;20231;-82
2022/04/05 09:32:51;;;;;;;0.77;0.77;;;;;;;11.41;54.94;96907.25;6202811;28;20620;-82
2022/04/05 09:36:03;;;;;;;0.67;0.67;;;;;;;11.23;52.62;96888.72;6181060;28;20234;-83
2022/04/05 09:39:18;;;;;;;0.77;0.70;;;;;;;10.99;54.30;96926.19;6179383;28;20240;-83
2022/04/05 09:42:21;;;;;;;0.60;0.60;;;;;;;11.35;53.30;96926.34;6164080;28;20248;-82
2022/04/05 09:46:04;;;;;;;1.37;0.60;;;;;;;11.06;52.02;96918.53;6179204;28;20591;-83
2022/04/05 09:49:14;;;;;;;1.47;0.83;;;;;;;11.23;52.87;96911.66;6156250;28;20716;-82
2022/04/05 10:52:11;;;;;;;1.47;0.90;;;;;;;11.36;53.20;96939.41;3909757;28;20251;-83
2022/04/05 10:55:19;;;;;;;1.00;0.90;;;;;;;11.45;51.96;96925.31;6155683;28;20249;-83
2022/04/05 10:58:22;;;;;;;0.90;0.70;;;;;;;11.57;52.42;96936.50;6157959;28;20234;-83
2022/04/05 11:01:39;;;;;;;0.80;0.80;;;;;;;11.27;53.63;96934.16;6171907;28;20241;-83
2022/04/05 11:04:42;;;;;;;0.80;0.80;;;;;;;11.33;55.31;96970.53;6180701;28;20773;-82
2022/04/05 11:07:59;;;;;;;1.07;0.93;;;;;;;11.30;54.72;96949.69;6180467;28;20320;-83
2022/04/05 11:11:05;;;;;;;1.97;0.90;;;;;;;11.03;56.61;96950.50;6164703;28;20229;-83
2022/04/05 11:14:07;;;;;;;0.93;0.93;;;;;;;11.23;57.65;96970.59;6165863;28;20229;-83
2022/04/05 11:17:12;;;;;;;1.30;1.00;;;;;;;10.95;57.08;96951.22;6158327;28;20233;-83
2022/04/05 11:20:15;;;;;;;1.83;1.00;;;;;;;11.18;57.81;96949.03;6165943;28;20229;-83
2022/04/05 11:23:19;;;;;;;0.90;0.90;;;;;;;11.36;57.63;96942.03;6163571;28;20762;-83
2022/04/05 11:26:30;;;;;;;0.97;0.97;;;;;;;11.02;55.09;96984.00;6182442;28;20233;-83
2022/04/05 11:29:32;;;;;;;1.17;1.07;;;;;;;10.71;58.64;96956.13;6184106;28;20236;-83
2022/04/05 11:32:34;;;;;;;1.10;1.00;;;;;;;10.75;58.13;96959.31;6174244;28;20234;-83
2022/04/05 11:35:42;;;;;;;1.10;1.00;;;;;;;11.21;56.42;96958.50;6181349;28;20229;-83
2022/04/05 11:38:58;;;;;;;1.13;1.00;;;;;;;11.45;58.57;96953.53;6165016;28;20237;-83
2022/04/05 11:42:01;;;;;;;1.20;1.10;;;;;;;11.21;57.25;96954.03;6179512;28;20237;-83
2022/04/05 11:45:06;;;;;;;1.33;1.00;;;;;;;11.02;58.16;96959.41;6180731;28;20234;-83
2022/04/05 11:48:16;;;;;;;0.93;0.87;;;;;;;10.86;57.41;96969.72;6180891;28;20213;-83
2022/04/05 11:51:32;;;;;;;0.83;0.83;;;;;;;10.72;56.81;96963.91;6181019;28;20221;-83
2022/04/05 11:56:00;;;;;;;0.60;0.60;;;;;;;10.61;56.42;96965.88;6180548;28;20646;-83
2022/04/05 11:57:56;;;;;;;0.80;0.80;;;;;;;10.73;58.85;96949.75;6171771;28;20234;-82
2022/04/05 12:00:58;;;;;;;0.80;0.80;;;;;;;10.71;61.48;96970.16;6153846;28;20232;-82
2022/04/05 12:04:04;;;;;;;0.87;0.87;;;;;;;10.87;58.73;96959.03;6180406;28;20229;-83
2022/04/05 12:07:12;;;;;;;0.70;0.70;;;;;;;11.67;58.36;96954.97;6179411;28;20232;-82
2022/04/05 12:10:14;;;;;;;1.00;0.90;;;;;;;12.10;58.27;96957.75;6163986;28;20242;-82
2022/04/05 12:13:26;;;;;;;0.70;0.70;;;;;;;12.05;56.67;96961.84;6163492;28;20709;-82
2022/04/05 12:16:42;;;;;;;0.80;0.70;;;;;;;12.01;56.03;96955.19;6160239;28;20352;-82
2022/04/05 12:19:45;;;;;;;2.23;0.70;;;;;;;11.74;56.13;96964.78;6169632;28;20233;-82
2022/04/05 12:22:47;;;;;;;1.00;0.60;;;;;;;11.90;56.44;96945.66;6196097;28;20555;-83
2022/04/05 12:26:07;;;;;;;0.60;0.60;;;;;;;11.72;57.11;96950.03;6179310;28;20237;-83
2022/04/05 12:29:09;;;;;;;0.80;0.80;;;;;;;11.54;55.61;96949.19;6154312;28;20233;-83
2022/04/05 12:32:12;;;;;;;0.80;0.70;;;;;;;11.28;56.61;96957.75;6180120;28;20225;-83
2022/04/05 12:35:15;;;;;;;0.70;0.70;;;;;;;11.42;57.70;96953.81;6179818;28;20283;-82
2022/04/05 12:38:18;;;;;;;0.70;0.70;;;;;;;11.14;56.84;96952.97;6178988;28;20236;-82
2022/04/05 12:41:21;;;;;;;0.83;0.83;;;;;;;11.21;57.32;96947.94;6178193;28;20228;-82
2022/04/05 12:44:28;;;;;;;0.50;0.50;;;;;;;11.77;57.15;96946.03;6179047;28;20225;-82
2022/04/05 12:47:32;;;;;;;0.67;0.67;;;;;;;11.37;57.60;96948.16;6178866;28;20252;-82
2022/04/05 12:50:49;;;;;;;1.00;0.80;;;;;;;11.19;59.25;96966.56;6179988;28;20582;-83
2022/04/05 12:53:51;;;;;;;0.77;0.77;;;;;;;11.45;59.29;96948.25;6149302;28;20728;-83
2022/04/05 12:57:19;;;;;;;0.97;0.87;;;;;;;11.22;60.85;96945.16;6180463;28;20474;-83
2022/04/05 13:00:26;;;;;;;1.03;0.80;;;;;;;10.77;60.72;96958.22;6135866;28;20222;-83
2022/04/05 13:03:34;;;;;;;1.17;1.07;;;;;;;10.33;60.20;96944.66;6140281;28;20229;-82
2022/04/05 13:06:36;;;;;;;1.20;1.10;;;;;;;10.52;64.36;96942.97;6169920;28;20965;-82
2022/04/05 13:09:39;;;;;;;1.10;1.00;;;;;;;10.30;63.00;96955.47;6172364;28;20220;-82
2022/04/05 13:12:41;;;;;;;1.93;0.90;;;;;;;10.35;62.96;96941.88;6180998;28;20244;-82
2022/04/05 13:15:45;;;;;;;1.20;1.07;;;;;;;10.46;65.02;96940.91;6178901;28;20244;-82
2022/04/05 13:18:48;;;;;;;0.80;0.80;;;;;;;10.67;64.19;96941.56;6178390;28;20240;-82
2022/04/05 13:21:53;;;;;;;0.90;0.90;;;;;;;11.05;62.16;96935.34;6162110;28;20254;-82
2022/04/05 13:24:58;;;;;;;1.27;1.00;;;;;;;11.14;62.50;96936.28;6177582;28;20315;-83
2022/04/05 13:28:01;;;;;;;1.23;1.13;;;;;;;11.09;62.97;96937.53;6180235;28;20239;-82
2022/04/05 13:31:08;;;;;;;2.30;1.10;;;;;;;11.16;62.35;96919.31;6183843;28;20232;-82
2022/04/05 13:34:13;;;;;;;0.97;0.90;;;;;;;10.93;61.76;96926.78;6181035;28;20233;-82
2022/04/05 13:37:18;;;;;;;1.23;1.13;;;;;;;10.96;61.53;96912.47;6170190;28;20241;-82
2022/04/05 13:40:20;;;;;;;1.53;0.97;;;;;;;11.17;62.22;96922.81;6145434;28;20737;-82
2022/04/05 13:43:22;;;;;;;1.07;0.90;;;;;;;11.14;60.16;96913.34;6162180;28;20237;-82
2022/04/05 13:46:25;;;;;;;1.37;1.10;;;;;;;11.04;61.04;96912.56;6162401;28;20244;-82
2022/04/05 13:49:27;;;;;;;1.60;1.03;;;;;;;11.01;61.99;96903.13;6157673;28;20714;-82
2022/04/05 13:52:29;;;;;;;1.00;0.90;;;;;;;10.98;61.75;96902.59;6165971;28;20225;-82
2022/04/05 13:55:35;;;;;;;1.47;0.93;;;;;;;10.72;62.72;96902.38;6202106;28;20240;-83
2022/04/05 13:58:37;;;;;;;0.80;0.73;;;;;;;11.09;62.89;96905.84;6203672;28;20228;-82
2022/04/05 14:01:39;;;;;;;0.57;0.57;;;;;;;11.15;63.00;96915.03;6178812;28;20233;-82
2022/04/05 14:04:41;;;;;;;1.57;0.80;;;;;;;10.75;62.53;96915.28;6158335;28;20285;-83
2022/04/05 14:07:44;;;;;;;0.83;0.83;;;;;;;10.56;63.10;96902.16;6166052;28;20319;-82
2022/04/05 14:10:46;;;;;;;0.70;0.70;;;;;;;10.71;63.52;96898.06;6175019;28;20380;-82
2022/04/05 14:14:09;;;;;;;0.90;0.90;;;;;;;10.82;63.85;96903.19;6148292;28;20260;-82
2022/04/05 14:17:11;;;;;;;0.90;0.90;;;;;;;10.70;63.11;96904.31;6182468;28;20236;-82
2022/04/05 14:20:13;;;;;;;1.00;0.90;;;;;;;10.58;64.81;96908.13;6182536;28;20236;-82
2022/04/05 14:23:16;;;;;;;0.80;0.80;;;;;;;10.52;63.83;96906.03;6182364;28;20253;-82
2022/04/05 14:26:18;;;;;;;1.10;0.90;;;;;;;10.31;63.98;96899.13;6182665;28;20236;-82
2022/04/05 14:29:20;;;;;;;0.97;0.97;;;;;;;10.12;64.83;96903.53;6168357;28;20506;-82
2022/04/05 14:32:22;;;;;;;1.73;0.80;;;;;;;9.89;65.00;96911.72;6167930;28;20523;-82
2022/04/05 14:35:25;;;;;;;1.10;1.00;;;;;;;9.66;66.35;96912.13;6142959;28;20409;-82
2022/04/05 14:38:30;;;;;;;1.10;0.90;;;;;;;9.56;66.97;96912.94;6160180;28;20248;-83
2022/04/05 14:41:33;;;;;;;1.60;1.30;;;;;;;9.30;67.78;96905.66;6144257;28;20252;-82
2022/04/05 14:44:35;;;;;;;2.77;1.10;;;;;;;9.24;68.28;96894.69;6181889;28;20264;-83
2022/04/05 14:47:37;;;;;;;1.10;0.90;;;;;;;9.11;69.28;96895.88;6170135;28;20239;-82
2022/04/05 14:50:40;;;;;;;1.70;0.93;;;;;;;9.06;69.28;96895.47;6180626;28;20236;-82
2022/04/05 14:53:53;;;;;;;1.63;1.10;;;;;;;9.00;70.12;96891.56;6182101;28;20237;-82
2022/04/05 14:56:57;;;;;;;0.80;0.80;;;;;;;8.87;69.66;96889.19;6183947;28;20628;-82
2022/04/05 14:59:59;;;;;;;0.87;0.87;;;;;;;8.83;70.01;96886.91;6165721;28;20243;-82
2022/04/05 15:03:01;;;;;;;1.07;0.97;;;;;;;8.91;68.66;96889.72;6157275;28;20770;-82
2022/04/05 15:06:04;;;;;;;1.43;0.87;;;;;;;8.83;69.76;96892.19;6181565;28;20222;-82
2022/04/05 15:09:06;;;;;;;1.53;1.00;;;;;;;8.81;69.92;96884.41;6181932;28;20248;-82
2022/04/05 15:12:09;;;;;;;0.70;0.70;;;;;;;8.85;69.77;96882.38;6181374;28;20583;-82
2022/04/05 15:15:11;;;;;;;1.20;0.70;;;;;;;8.88;70.11;96884.75;6167436;28;20205;-82
2022/04/05 15:18:14;;;;;;;2.30;0.70;;;;;;;8.86;70.28;96876.97;6180640;28;20225;-82
2022/04/05 15:21:16;;;;;;;1.10;0.80;;;;;;;8.78;68.94;96886.50;6182495;28;20243;-82
2022/04/05 15:24:21;;;;;;;1.20;0.70;;;;;;;8.78;68.86;96891.75;6181488;28;20240;-82
2022/04/05 15:27:25;;;;;;;1.17;0.60;;;;;;;8.80;69.59;96895.06;6182293;28;20228;-82
2022/04/05 15:30:32;;;;;;;0.60;0.60;;;;;;;8.81;69.58;96896.75;6191022;28;20219;-82
2022/04/05 15:33:35;;;;;;;0.77;0.53;;;;;;;8.84;70.23;96891.22;6168501;28;20231;-83
2022/04/05 15:36:37;;;;;;;0.80;0.77;;;;;;;8.87;69.66;96888.34;6159369;28;20234;-82